createdAt,value
2023-05-09T00:00:53.363Z,3.65
2023-05-09T00:04:56.836Z,3.70
2023-05-09T00:08:58.643Z,4.20
2023-05-09T00:13:00.988Z,3.17
2023-05-09T00:17:02.905Z,3.70
2023-05-09T00:21:04.637Z,2.78
2023-05-09T00:25:07.953Z,3.40
2023-05-09T00:29:10.062Z,3.25
2023-05-09T00:33:11.916Z,3.40
2023-05-09T00:37:13.646Z,3.10
2023-05-09T00:41:15.608Z,3.22
2023-05-09T00:45:17.386Z,3.47
2023-05-09T00:49:19.239Z,3.10
2023-05-09T00:53:21.063Z,3.13
2023-05-09T00:57:23.330Z,2.90
2023-05-09T01:01:25.421Z,2.80
2023-05-09T01:05:37.091Z,3.10
2023-05-09T01:09:38.945Z,3.00
2023-05-09T01:14:06.661Z,2.88
2023-05-09T01:18:21.712Z,2.92
2023-05-09T01:22:35.870Z,2.33
2023-05-09T01:26:48.076Z,2.88
2023-05-09T01:30:53.522Z,2.30
2023-05-09T01:34:56.806Z,2.42
2023-05-09T01:38:59.657Z,3.20
2023-05-09T01:43:08.284Z,2.88
2023-05-09T01:47:11.730Z,2.92
2023-05-09T01:51:15.057Z,2.50
2023-05-09T01:55:19.928Z,2.78
2023-05-09T01:59:22.988Z,2.50
2023-05-09T02:03:26.085Z,2.80
2023-05-09T02:07:29.817Z,1.83
2023-05-09T02:11:31.646Z,3.10
2023-05-09T02:15:34.286Z,2.75
2023-05-09T02:19:36.305Z,2.20
2023-05-09T02:23:38.239Z,2.85
2023-05-09T02:27:41.002Z,2.55
2023-05-09T02:31:43.950Z,2.90
2023-05-09T02:35:46.753Z,2.70
2023-05-09T02:39:48.556Z,3.00
2023-05-09T02:43:50.413Z,3.40
2023-05-09T02:47:52.251Z,2.65
2023-05-09T02:51:53.972Z,2.63
2023-05-09T02:55:55.768Z,3.47
2023-05-09T02:59:57.497Z,3.15
2023-05-09T03:03:59.392Z,3.15
2023-05-09T03:08:01.281Z,3.30
2023-05-09T03:12:03.925Z,3.33
2023-05-09T03:16:06.289Z,2.90
2023-05-09T03:20:10.430Z,2.92
2023-05-09T03:24:12.635Z,2.85
2023-05-09T03:28:14.856Z,3.00
2023-05-09T03:32:17.060Z,2.38
2023-05-09T03:36:19.284Z,3.28
2023-05-09T03:40:21.499Z,3.13
2023-05-09T03:44:30.405Z,3.53
2023-05-09T03:48:32.339Z,3.38
2023-05-09T03:52:34.197Z,3.45
2023-05-09T03:56:37.064Z,2.95
2023-05-09T04:00:40.473Z,3.25
2023-05-09T04:04:50.039Z,3.40
2023-05-09T04:08:55.173Z,3.40
2023-05-09T04:12:57.407Z,2.97
2023-05-09T04:17:00.040Z,2.97
2023-05-09T04:21:02.072Z,2.78
2023-05-09T04:25:05.583Z,2.92
2023-05-09T04:29:07.588Z,3.00
2023-05-09T04:33:10.197Z,3.03
2023-05-09T04:37:13.312Z,3.28
2023-05-09T04:41:16.519Z,3.13
2023-05-09T04:45:19.143Z,2.25
2023-05-09T04:49:21.338Z,2.88
2023-05-09T04:53:23.464Z,3.67
2023-05-09T04:57:26.072Z,3.67
2023-05-09T05:01:31.698Z,3.60
2023-05-09T05:05:37.254Z,3.47
2023-05-09T05:09:40.280Z,3.13
2023-05-09T05:13:42.160Z,3.97
2023-05-09T05:17:45.817Z,3.15
2023-05-09T05:21:48.750Z,3.80
2023-05-09T05:25:50.788Z,3.30
2023-05-09T05:29:52.728Z,4.55
2023-05-09T05:33:54.544Z,3.85
2023-05-09T05:37:57.088Z,3.50
2023-05-09T05:42:00.115Z,3.78
2023-05-09T05:46:02.251Z,3.58
2023-05-09T05:50:11.912Z,4.45
2023-05-09T05:54:14.669Z,3.65
2023-05-09T05:58:17.090Z,4.40
2023-05-09T06:02:18.996Z,3.53
2023-05-09T06:06:22.899Z,3.83
2023-05-09T06:10:24.795Z,4.28
2023-05-09T06:14:26.619Z,3.72
2023-05-09T06:18:29.161Z,4.22
2023-05-09T06:22:31.026Z,3.97
2023-05-09T06:26:32.926Z,4.38
2023-05-09T06:30:34.651Z,4.03
2023-05-09T06:34:36.370Z,3.55
2023-05-09T06:38:38.119Z,4.22
2023-05-09T06:42:39.812Z,4.00
2023-05-09T06:46:41.599Z,4.35
2023-05-09T06:50:43.453Z,4.00
2023-05-09T06:54:45.257Z,4.40
2023-05-09T06:58:47.232Z,4.97
2023-05-09T07:02:49.002Z,4.78
2023-05-09T07:06:50.813Z,4.18
2023-05-09T07:10:52.545Z,2.75
2023-05-09T07:14:54.223Z,4.20
2023-05-09T07:18:56.335Z,5.20
2023-05-09T07:22:58.656Z,4.88
2023-05-09T07:27:03.579Z,4.45
2023-05-09T07:31:06.230Z,4.72
2023-05-09T07:35:08.340Z,4.80
2023-05-09T07:39:10.658Z,4.78
2023-05-09T07:43:12.388Z,4.00
2023-05-09T07:47:14.106Z,5.70
2023-05-09T07:51:15.896Z,4.90
2023-05-09T07:55:17.957Z,4.90
2023-05-09T07:59:19.909Z,4.78
2023-05-09T08:03:21.876Z,4.40
2023-05-09T08:07:23.673Z,5.70
2023-05-09T08:11:25.403Z,5.00
2023-05-09T08:15:27.177Z,5.30
2023-05-09T08:19:28.907Z,5.03
2023-05-09T08:23:30.753Z,4.72
2023-05-09T08:27:32.475Z,5.07
2023-05-09T08:31:34.235Z,5.40
2023-05-09T08:35:36.064Z,5.63
2023-05-09T08:39:37.749Z,5.45
2023-05-09T08:43:40.891Z,4.63
2023-05-09T08:47:43.169Z,3.97
2023-05-09T08:51:46.501Z,4.47
2023-05-09T08:55:52.280Z,4.50
2023-05-09T08:59:55.460Z,5.07
2023-05-09T09:03:57.354Z,4.97
2023-05-09T09:07:59.817Z,5.15
2023-05-09T09:12:06.638Z,5.28
2023-05-09T09:16:12.360Z,6.00
2023-05-09T09:20:15.657Z,5.07
2023-05-09T09:24:22.643Z,4.95
2023-05-09T09:28:24.353Z,4.82
2023-05-09T09:32:34.054Z,4.47
2023-05-09T09:36:38.629Z,4.18
2023-05-09T09:40:40.679Z,4.75
2023-05-09T09:44:42.353Z,4.78
2023-05-09T09:48:51.181Z,6.15
2023-05-09T09:52:57.698Z,5.63
2023-05-09T09:56:59.409Z,4.82
2023-05-09T10:01:14.002Z,4.72
2023-05-09T10:05:20.800Z,4.20
2023-05-09T10:09:26.843Z,4.68
2023-05-09T10:13:28.908Z,5.03
2023-05-09T10:17:34.208Z,5.22
2023-05-09T10:21:38.042Z,5.15
2023-05-09T10:25:46.916Z,5.30
2023-05-09T10:30:01.975Z,4.63
2023-05-09T10:34:10.146Z,4.97
2023-05-09T10:38:12.961Z,4.78
2023-05-09T10:42:14.756Z,4.68
2023-05-09T10:46:17.421Z,4.80
2023-05-09T10:50:21.450Z,4.35
2023-05-09T10:54:30.686Z,4.85
2023-05-09T10:58:36.298Z,4.72
2023-05-09T11:02:39.217Z,4.57
2023-05-09T11:06:52.253Z,4.20
2023-05-09T11:10:56.348Z,5.20
2023-05-09T11:15:05.547Z,4.72
2023-05-09T11:19:08.512Z,4.93
2023-05-09T11:23:11.933Z,4.53
2023-05-09T11:27:21.534Z,4.10
2023-05-09T11:31:23.251Z,4.60
2023-05-09T11:35:26.928Z,4.15
2023-05-09T11:39:30.312Z,4.28
2023-05-09T11:43:32.682Z,4.32
2023-05-09T11:47:36.946Z,3.97
2023-05-09T11:51:39.263Z,4.07
2023-05-09T11:55:41.331Z,4.63
2023-05-09T11:59:45.507Z,4.07
2023-05-09T12:03:47.816Z,4.40
2023-05-09T12:07:50.228Z,3.80
2023-05-09T12:11:52.683Z,4.00
2023-05-09T12:16:01.177Z,3.95
2023-05-09T12:20:05.802Z,3.78
2023-05-09T12:24:07.627Z,4.00
2023-05-09T12:28:09.954Z,4.28
2023-05-09T12:32:14.009Z,4.00
2023-05-09T12:36:16.809Z,3.85
2023-05-09T12:40:18.544Z,3.70
2023-05-09T12:44:21.233Z,4.25
2023-05-09T12:48:24.131Z,3.67
2023-05-09T12:52:26.141Z,3.97
2023-05-09T12:56:28.218Z,3.95
2023-05-09T13:00:42.464Z,3.60
2023-05-09T13:04:44.301Z,3.22
2023-05-09T13:08:57.533Z,3.60
2023-05-09T13:12:59.297Z,3.60
2023-05-09T13:17:01.336Z,3.47
2023-05-09T13:21:03.482Z,3.40
2023-05-09T13:25:06.117Z,3.00
2023-05-09T13:29:07.949Z,2.63
2023-05-09T13:33:24.507Z,2.60
2023-05-09T13:37:28.248Z,3.05
2023-05-09T13:41:32.094Z,3.10
2023-05-09T13:45:33.779Z,3.20
2023-05-09T13:49:35.552Z,3.33
2023-05-09T13:53:39.005Z,3.40
2023-05-09T13:57:41.033Z,2.97
2023-05-09T14:01:42.868Z,2.83
2023-05-09T14:05:44.642Z,2.90
2023-05-09T14:09:49.072Z,3.88
2023-05-09T14:13:53.948Z,3.25
2023-05-09T14:17:55.709Z,3.10
2023-05-09T14:21:57.479Z,3.45
2023-05-09T14:25:59.263Z,2.90
2023-05-09T14:30:01.041Z,2.75
2023-05-09T14:34:04.671Z,2.85
2023-05-09T14:38:06.523Z,3.00
2023-05-09T14:42:10.538Z,2.90
2023-05-09T14:46:12.327Z,3.00
2023-05-09T14:50:15.901Z,3.00
2023-05-09T14:54:18.093Z,3.00
2023-05-09T14:58:20.265Z,2.38
2023-05-09T15:02:22.182Z,2.35
2023-05-09T15:06:23.925Z,2.60
2023-05-09T15:10:27.583Z,2.60
2023-05-09T15:14:29.329Z,2.55
2023-05-09T15:18:31.559Z,2.90
2023-05-09T15:22:33.970Z,3.00
2023-05-09T15:26:35.687Z,2.90
2023-05-09T15:30:39.220Z,2.58
2023-05-09T15:34:40.997Z,2.53
2023-05-09T15:38:42.777Z,2.85
2023-05-09T15:42:44.525Z,2.80
2023-05-09T15:46:46.281Z,2.97
2023-05-09T15:50:48.482Z,2.72
2023-05-09T15:54:50.393Z,2.47
2023-05-09T15:58:52.178Z,2.78
2023-05-09T16:02:53.989Z,2.80
2023-05-09T16:06:55.974Z,2.80
2023-05-09T16:11:00.937Z,3.58
2023-05-09T16:15:04.457Z,2.70
2023-05-09T16:19:06.798Z,3.10
2023-05-09T16:23:08.518Z,3.15
2023-05-09T16:27:10.252Z,2.70
2023-05-09T16:31:12.094Z,2.95
2023-05-09T16:35:13.965Z,2.60
2023-05-09T16:39:16.160Z,2.58
2023-05-09T16:43:20.068Z,2.80
2023-05-09T16:47:21.832Z,2.30
2023-05-09T16:51:23.572Z,2.50
2023-05-09T16:55:25.401Z,2.40
2023-05-09T16:59:27.200Z,2.67
2023-05-09T17:03:29.303Z,2.50
2023-05-09T17:07:32.002Z,2.40
2023-05-09T17:11:33.752Z,2.20
2023-05-09T17:15:35.780Z,2.45
2023-05-09T17:19:38.116Z,2.20
2023-05-09T17:23:39.810Z,2.50
2023-05-09T17:27:42.692Z,2.80
2023-05-09T17:31:44.415Z,2.50
2023-05-09T17:35:49.422Z,2.80
2023-05-09T17:39:51.701Z,2.30
2023-05-09T17:43:56.409Z,2.70
2023-05-09T17:47:59.735Z,4.38
2023-05-09T17:52:01.650Z,2.70
2023-05-09T17:56:03.533Z,2.75
2023-05-09T18:00:09.175Z,2.40
2023-05-09T18:04:16.749Z,2.35
2023-05-09T18:08:18.578Z,2.15
2023-05-09T18:12:20.483Z,2.28
2023-05-09T18:16:22.396Z,2.03
2023-05-09T18:20:24.224Z,1.55
2023-05-09T18:24:25.938Z,1.90
2023-05-09T18:28:27.701Z,2.10
2023-05-09T18:32:29.971Z,1.77
2023-05-09T18:36:31.691Z,2.22
2023-05-09T18:40:33.506Z,1.92
2023-05-09T18:44:36.494Z,1.73
2023-05-09T18:48:39.125Z,1.98
2023-05-09T18:52:40.985Z,1.70
2023-05-09T18:56:43.088Z,2.00
2023-05-09T19:00:46.501Z,2.20
2023-05-09T19:04:50.368Z,2.03
2023-05-09T19:08:53.858Z,1.70
2023-05-09T19:12:56.641Z,1.85
2023-05-09T19:16:58.680Z,1.77
2023-05-09T19:21:00.821Z,2.00
2023-05-09T19:25:02.619Z,2.03
2023-05-09T19:29:08.013Z,2.15
2023-05-09T19:33:09.861Z,2.10
2023-05-09T19:37:11.789Z,2.17
2023-05-09T19:41:14.047Z,1.80
2023-05-09T19:45:15.832Z,1.95
2023-05-09T19:49:18.082Z,1.88
2023-05-09T19:53:19.951Z,2.08
2023-05-09T19:57:21.784Z,1.63
2023-05-09T20:01:23.481Z,2.08
2023-05-09T20:05:25.376Z,2.40
2023-05-09T20:09:27.059Z,2.13
2023-05-09T20:13:28.863Z,2.20
2023-05-09T20:17:30.672Z,2.03
2023-05-09T20:21:32.391Z,1.85
2023-05-09T20:25:34.105Z,2.00
2023-05-09T20:29:35.822Z,2.28
2023-05-09T20:33:37.577Z,2.17
2023-05-09T20:37:39.655Z,1.88
2023-05-09T20:41:41.366Z,2.10
2023-05-09T20:45:43.442Z,2.45
2023-05-09T20:49:45.253Z,2.45
2023-05-09T20:53:46.985Z,2.47
2023-05-09T20:57:48.697Z,1.75
2023-05-09T21:01:52.166Z,2.20
2023-05-09T21:05:54.037Z,2.20
2023-05-09T21:09:57.063Z,2.00
2023-05-09T21:13:58.830Z,1.90
2023-05-09T21:18:00.677Z,2.25
2023-05-09T21:22:02.866Z,2.50
2023-05-09T21:26:04.834Z,2.13
2023-05-09T21:30:07.312Z,2.00
2023-05-09T21:34:11.893Z,2.10
2023-05-09T21:38:14.144Z,1.98
2023-05-09T21:42:16.084Z,2.10
2023-05-09T21:46:17.766Z,2.03
2023-05-09T21:50:19.682Z,2.28
2023-05-09T21:54:21.386Z,2.20
2023-05-09T21:58:23.138Z,2.30
2023-05-09T22:02:24.904Z,2.45
2023-05-09T22:06:26.675Z,2.22
2023-05-09T22:10:28.748Z,2.28
2023-05-09T22:14:30.718Z,2.30
2023-05-09T22:18:33.384Z,2.33
2023-05-09T22:22:35.272Z,2.35
2023-05-09T22:26:37.146Z,1.85
2023-05-09T22:30:38.946Z,2.42
2023-05-09T22:34:40.829Z,2.42
2023-05-09T22:38:42.735Z,2.40
2023-05-09T22:42:44.416Z,2.55
2023-05-09T22:46:46.296Z,2.50
2023-05-09T22:50:48.007Z,2.85
2023-05-09T22:54:49.751Z,2.40
2023-05-09T22:58:51.709Z,2.67
2023-05-09T23:02:53.595Z,2.92
2023-05-09T23:06:56.218Z,2.17
2023-05-09T23:10:57.928Z,2.30
2023-05-09T23:14:59.676Z,2.50
2023-05-09T23:19:01.433Z,2.20
2023-05-09T23:23:04.227Z,2.70
2023-05-09T23:27:05.992Z,2.53
2023-05-09T23:31:07.873Z,2.60
2023-05-09T23:35:10.112Z,2.55
2023-05-09T23:39:12.139Z,2.75
2023-05-09T23:43:14.113Z,2.47
2023-05-09T23:47:16.240Z,2.97
2023-05-09T23:51:20.012Z,2.97
2023-05-09T23:55:21.840Z,3.15
2023-05-09T23:59:23.591Z,2.65
